Time;durP1;ratioP1;P1;durP2;ratioP2;P2;SDS_P1;SDS_P2;PMS_P1;PMS_P2;Temp;Humidity;BMP_temperature;BMP_pressure;BME280_temperature;BME280_humidity;BME280_pressure;Samples;Min_cycle;Max_cycle;Signal;HPM_P1;HPM_P2
2021/12/09 00:01:31;;;;;;;36.25;20.35;;;;;;;-3.94;77.07;94443.25;5124231;27;20511;-73
2021/12/09 00:04:03;;;;;;;52.45;27.65;;;;;;;-3.87;77.55;94430.31;5126427;27;20031;-73
2021/12/09 00:06:30;;;;;;;50.38;26.95;;;;;;;-3.80;77.32;94435.19;5126013;27;20477;-74
2021/12/09 00:08:58;;;;;;;50.67;26.02;;;;;;;-3.70;77.08;94442.44;5095659;27;20031;-73
2021/12/09 00:11:23;;;;;;;48.08;24.40;;;;;;;-3.60;77.01;94442.94;5115297;27;20539;-73
2021/12/09 00:13:49;;;;;;;35.58;20.23;;;;;;;-3.61;77.44;94441.31;5115419;27;20023;-73
2021/12/09 00:16:14;;;;;;;40.47;20.02;;;;;;;-3.49;77.09;94440.03;5133051;27;20058;-73
2021/12/09 00:18:40;;;;;;;53.67;27.38;;;;;;;-3.42;77.28;94444.03;5134285;27;20438;-73
2021/12/09 00:21:05;;;;;;;61.28;31.48;;;;;;;-3.36;77.16;94438.75;5115835;27;20043;-73
2021/12/09 00:23:31;;;;;;;56.85;29.58;;;;;;;-3.45;77.14;94421.28;5115806;27;20031;-73
2021/12/09 00:25:56;;;;;;;44.47;22.92;;;;;;;-3.58;77.40;94413.25;5115661;27;20116;-73
2021/12/09 00:28:22;;;;;;;36.38;20.70;;;;;;;-3.43;77.32;94424.59;5132865;27;20027;-73
2021/12/09 00:30:47;;;;;;;68.93;37.03;;;;;;;-3.37;77.03;94425.22;5115572;27;20493;-73
2021/12/09 00:33:15;;;;;;;76.97;41.55;;;;;;;-3.67;78.11;94421.19;5131940;27;20481;-73
2021/12/09 00:35:45;;;;;;;110.85;55.10;;;;;;;-3.84;78.97;94426.84;5115484;27;20035;-74
2021/12/09 00:38:18;;;;;;;105.63;51.00;;;;;;;-3.93;79.18;94422.91;5148663;27;20027;-73
2021/12/09 00:40:44;;;;;;;62.22;34.42;;;;;;;-3.90;79.52;94394.03;5154510;27;20022;-73
2021/12/09 00:43:09;;;;;;;73.80;37.55;;;;;;;-3.78;79.88;94403.78;5154498;27;20404;-73
2021/12/09 00:45:35;;;;;;;66.88;37.40;;;;;;;-3.75;79.56;94391.00;5153136;27;20019;-73
2021/12/09 00:48:00;;;;;;;62.63;32.30;;;;;;;-3.54;79.93;94380.97;5154451;27;20018;-73
2021/12/09 00:50:26;;;;;;;55.25;28.42;;;;;;;-3.40;79.56;94363.50;5153088;27;20088;-73
2021/12/09 00:52:51;;;;;;;51.00;27.20;;;;;;;-3.34;79.74;94365.00;5135915;27;20046;-73
2021/12/09 00:55:17;;;;;;;53.88;29.08;;;;;;;-3.27;79.43;94361.38;5153002;27;20023;-73
2021/12/09 00:57:43;;;;;;;48.78;26.95;;;;;;;-3.12;78.96;94360.81;5153219;27;20034;-73
2021/12/09 01:00:17;;;;;;;49.35;26.83;;;;;;;-3.12;79.07;94370.13;5135719;27;20026;-73
2021/12/09 01:02:42;;;;;;;53.35;29.15;;;;;;;-3.19;78.95;94367.81;5153248;27;20092;-74
2021/12/09 01:05:09;;;;;;;53.63;28.20;;;;;;;-2.97;79.21;94382.28;5154027;27;20109;-73
2021/12/09 01:07:34;;;;;;;33.42;18.00;;;;;;;-2.89;78.70;94390.47;5135689;27;20144;-73
2021/12/09 01:10:00;;;;;;;21.38;12.02;;;;;;;-2.87;77.68;94382.75;5135702;27;20468;-73
2021/12/09 01:12:25;;;;;;;22.40;11.32;;;;;;;-2.73;77.04;94391.56;5135566;27;20477;-73
2021/12/09 01:14:51;;;;;;;23.42;12.02;;;;;;;-2.70;76.49;94376.16;5152619;27;20537;-73
2021/12/09 01:17:16;;;;;;;19.45;10.88;;;;;;;-2.70;76.41;94380.44;5152798;27;20030;-73
2021/12/09 01:19:42;;;;;;;22.75;11.30;;;;;;;-2.56;76.03;94397.72;5152666;27;20023;-73
2021/12/09 01:22:07;;;;;;;20.30;10.80;;;;;;;-2.55;76.08;94377.28;5152656;27;20480;-73
2021/12/09 01:24:33;;;;;;;19.88;10.65;;;;;;;-2.50;75.93;94388.13;5152485;27;20102;-73
2021/12/09 01:26:59;;;;;;;18.08;10.18;;;;;;;-2.50;76.26;94389.84;5154051;27;20118;-73
2021/12/09 01:29:34;;;;;;;16.52;10.32;;;;;;;-2.48;76.28;94378.72;5152373;27;20030;-73
2021/12/09 01:32:03;;;;;;;18.13;9.57;;;;;;;-2.44;76.20;94381.13;5152506;27;20117;-74
2021/12/09 01:34:28;;;;;;;16.23;9.23;;;;;;;-2.49;76.98;94369.41;5135565;27;20068;-73
2021/12/09 01:36:54;;;;;;;20.38;10.55;;;;;;;-2.47;76.64;94375.28;5126541;27;20497;-73
2021/12/09 01:39:20;;;;;;;21.27;10.68;;;;;;;-2.42;77.06;94369.16;5093961;28;20028;-73
2021/12/09 01:41:46;;;;;;;19.85;11.02;;;;;;;-2.51;77.78;94370.34;5094202;28;20043;-73
2021/12/09 01:44:11;;;;;;;25.50;13.40;;;;;;;-2.41;77.25;94383.56;5110784;28;20027;-73
2021/12/09 01:46:37;;;;;;;24.27;12.82;;;;;;;-2.49;76.62;94373.66;5111865;28;20038;-73
2021/12/09 01:49:02;;;;;;;25.60;14.82;;;;;;;-2.37;76.91;94400.34;5093755;28;20096;-74
2021/12/09 01:51:27;;;;;;;50.38;25.83;;;;;;;-2.59;77.91;94383.41;5110673;28;20478;-73
2021/12/09 01:53:53;;;;;;;50.00;25.10;;;;;;;-2.74;78.85;94382.25;5111969;28;20035;-73
2021/12/09 01:56:21;;;;;;;45.92;24.63;;;;;;;-2.57;78.34;94380.78;5111916;28;20027;-73
2021/12/09 01:58:51;;;;;;;46.33;25.02;;;;;;;-2.44;78.19;94381.13;5093879;28;20059;-73
2021/12/09 02:01:17;;;;;;;38.97;22.15;;;;;;;-2.52;77.89;94389.88;5076569;28;20413;-73
2021/12/09 02:03:42;;;;;;;41.95;23.00;;;;;;;-2.46;77.46;94363.38;5076639;28;20030;-73
2021/12/09 02:06:08;;;;;;;43.40;22.13;;;;;;;-2.38;77.70;94373.25;5110264;28;20483;-73
2021/12/09 02:08:33;;;;;;;32.67;18.20;;;;;;;-2.35;77.56;94381.59;5093369;28;20027;-73
2021/12/09 02:10:59;;;;;;;22.40;12.98;;;;;;;-2.25;77.06;94384.59;5111666;28;20030;-73
2021/12/09 02:13:24;;;;;;;24.45;12.02;;;;;;;-2.19;76.53;94391.16;5111482;28;20078;-73
2021/12/09 02:15:52;;;;;;;21.95;11.50;;;;;;;-2.14;76.59;94379.09;5110351;28;20020;-73
2021/12/09 02:18:18;;;;;;;19.52;10.77;;;;;;;-2.10;75.92;94380.59;5093663;28;20041;-73
2021/12/09 02:20:44;;;;;;;18.25;10.55;;;;;;;-2.10;75.68;94373.78;5093223;28;20031;-73
2021/12/09 02:23:12;;;;;;;50.60;28.20;;;;;;;-1.95;75.23;94371.50;5076552;28;20089;-73
2021/12/09 02:25:44;;;;;;;68.95;39.30;;;;;;;-1.93;74.28;94385.00;5093627;28;20023;-73
2021/12/09 02:28:10;;;;;;;74.32;39.67;;;;;;;-1.99;74.05;94360.63;5110204;28;20078;-73
2021/12/09 02:30:35;;;;;;;79.68;41.13;;;;;;;-2.14;74.45;94374.00;5093104;28;20691;-73
2021/12/09 02:33:01;;;;;;;81.90;39.50;;;;;;;-2.20;74.55;94367.44;5111272;28;20039;-73
2021/12/09 02:35:26;;;;;;;76.60;37.92;;;;;;;-2.10;74.23;94396.72;5093042;28;20031;-73
2021/12/09 02:37:52;;;;;;;75.68;37.95;;;;;;;-2.13;74.54;94390.91;5138317;27;20035;-73
2021/12/09 02:40:18;;;;;;;72.78;35.30;;;;;;;-2.12;73.98;94367.94;5152686;27;20034;-73
2021/12/09 02:42:43;;;;;;;67.30;32.47;;;;;;;-2.21;74.56;94392.94;5151242;27;20027;-73
2021/12/09 02:45:09;;;;;;;61.25;32.22;;;;;;;-2.25;74.73;94398.16;5151231;27;20268;-73
2021/12/09 02:47:35;;;;;;;66.18;32.70;;;;;;;-2.23;74.46;94381.97;5134178;27;20026;-74
2021/12/09 02:50:01;;;;;;;59.55;29.38;;;;;;;-2.29;74.41;94388.16;5151154;27;20030;-73
2021/12/09 02:52:26;;;;;;;63.10;31.35;;;;;;;-2.25;74.33;94392.25;5133906;27;20121;-73
2021/12/09 02:54:52;;;;;;;57.38;31.25;;;;;;;-2.26;73.84;94386.34;5151128;27;20056;-74
2021/12/09 02:57:17;;;;;;;70.38;34.53;;;;;;;-2.31;74.51;94390.78;5152394;27;20049;-73
2021/12/09 02:59:43;;;;;;;82.57;37.25;;;;;;;-2.39;74.96;94385.16;5156508;27;20030;-73
2021/12/09 03:02:10;;;;;;;104.15;46.42;;;;;;;-2.46;74.67;94358.28;5156843;27;20038;-73
2021/12/09 03:04:44;;;;;;;82.10;38.33;;;;;;;-2.42;74.76;94385.28;5155524;27;20018;-73
2021/12/09 03:07:33;;;;;;;71.90;35.13;;;;;;;-2.34;74.28;94398.53;5138229;27;20504;-74
2021/12/09 03:10:01;;;;;;;67.75;33.10;;;;;;;-2.29;74.26;94400.88;5140899;27;20022;-73
2021/12/09 03:12:31;;;;;;;64.45;33.33;;;;;;;-2.38;74.18;94385.97;5156629;27;20503;-73
2021/12/09 03:14:56;;;;;;;62.47;33.38;;;;;;;-2.40;74.17;94383.47;5138135;27;20415;-74
2021/12/09 03:17:22;;;;;;;64.43;33.17;;;;;;;-2.60;74.56;94371.53;5155097;27;20041;-73
2021/12/09 03:19:47;;;;;;;60.92;31.00;;;;;;;-2.46;74.76;94383.72;5156172;27;20019;-74
2021/12/09 03:22:13;;;;;;;78.20;42.08;;;;;;;-2.47;74.21;94366.81;5137775;27;20035;-73
2021/12/09 03:24:39;;;;;;;85.07;42.30;;;;;;;-2.49;74.41;94364.31;5137580;27;20106;-73
2021/12/09 03:27:04;;;;;;;75.78;40.28;;;;;;;-2.44;74.22;94369.25;5137531;27;20054;-73
2021/12/09 03:29:30;;;;;;;83.05;40.42;;;;;;;-2.41;73.63;94381.00;5154744;27;20031;-73
2021/12/09 03:31:58;;;;;;;81.15;40.35;;;;;;;-2.42;73.42;94392.91;5154783;27;20031;-73
2021/12/09 03:34:25;;;;;;;69.47;38.85;;;;;;;-2.40;73.71;94398.75;5137575;27;20031;-73
2021/12/09 03:36:51;;;;;;;60.97;32.33;;;;;;;-2.38;72.92;94396.16;5150048;27;20031;-73
2021/12/09 03:39:18;;;;;;;65.35;34.20;;;;;;;-2.50;73.22;94397.47;5116698;27;20035;-73
2021/12/09 03:41:48;;;;;;;75.45;42.30;;;;;;;-2.52;72.59;94414.50;5133962;27;20103;-73
2021/12/09 03:44:14;;;;;;;67.50;34.95;;;;;;;-2.58;73.20;94399.47;5117594;27;20031;-74
2021/12/09 03:46:39;;;;;;;69.70;36.17;;;;;;;-2.67;73.80;94402.34;5133631;27;20512;-73
2021/12/09 03:49:05;;;;;;;88.47;44.35;;;;;;;-2.66;74.10;94401.47;5133663;27;20517;-73
2021/12/09 03:51:30;;;;;;;90.95;43.95;;;;;;;-2.72;74.03;94388.09;5133564;27;20031;-74
2021/12/09 03:53:56;;;;;;;129.68;56.80;;;;;;;-3.19;75.85;94375.44;5133567;27;20035;-73
2021/12/09 03:56:21;;;;;;;97.97;48.97;;;;;;;-3.16;76.45;94377.88;5099278;27;20047;-74
2021/12/09 03:58:47;;;;;;;88.70;45.85;;;;;;;-3.09;75.83;94381.03;5134751;27;20019;-73
2021/12/09 04:01:12;;;;;;;86.18;43.20;;;;;;;-2.99;76.07;94378.97;5099190;27;20042;-74
2021/12/09 04:03:38;;;;;;;77.13;40.33;;;;;;;-2.89;75.96;94380.28;5134670;27;20027;-73
2021/12/09 04:06:03;;;;;;;71.25;37.78;;;;;;;-2.81;76.50;94398.63;5134311;27;20059;-73
2021/12/09 04:08:29;;;;;;;74.43;37.10;;;;;;;-2.80;76.52;94391.84;5134302;27;20489;-73
2021/12/09 04:10:54;;;;;;;137.95;62.90;;;;;;;-2.66;76.10;94396.41;5116009;27;20062;-73
2021/12/09 04:13:20;;;;;;;141.60;67.22;;;;;;;-2.71;75.39;94399.91;5133132;27;20027;-74
2021/12/09 04:15:45;;;;;;;132.65;60.03;;;;;;;-3.04;76.91;94401.19;5133152;27;20395;-73
2021/12/09 04:18:11;;;;;;;132.30;57.78;;;;;;;-3.01;77.01;94404.47;5115988;27;20060;-73
2021/12/09 04:20:36;;;;;;;118.40;55.03;;;;;;;-2.83;76.50;94410.56;5133018;27;20470;-73
2021/12/09 04:23:03;;;;;;;117.13;55.33;;;;;;;-2.84;76.18;94403.84;5132948;27;20031;-73
2021/12/09 04:25:29;;;;;;;118.85;56.63;;;;;;;-2.89;77.41;94418.44;5133278;27;20122;-73
2021/12/09 04:27:55;;;;;;;121.07;54.72;;;;;;;-2.94;76.83;94388.09;5133185;27;20590;-73
2021/12/09 04:30:22;;;;;;;142.00;64.22;;;;;;;-3.20;77.94;94398.41;5134002;27;20072;-73
2021/12/09 04:32:49;;;;;;;119.65;54.72;;;;;;;-3.12;78.01;94413.34;5116087;27;20042;-73
2021/12/09 04:35:14;;;;;;;113.65;51.10;;;;;;;-3.03;77.98;94425.72;5132721;27;20472;-73
2021/12/09 04:37:40;;;;;;;99.38;49.22;;;;;;;-2.97;77.93;94416.16;5145512;27;20043;-73
2021/12/09 04:40:07;;;;;;;108.07;55.97;;;;;;;-2.94;77.23;94412.69;5153486;27;20075;-73
2021/12/09 04:42:32;;;;;;;101.72;51.65;;;;;;;-3.26;77.90;94386.75;5153521;27;20039;-73
2021/12/09 04:44:58;;;;;;;101.95;49.47;;;;;;;-3.00;77.55;94408.66;5153284;27;20075;-73
2021/12/09 04:47:23;;;;;;;102.18;49.47;;;;;;;-3.02;77.64;94418.03;5153394;27;20039;-73
2021/12/09 04:49:48;;;;;;;95.32;50.03;;;;;;;-2.99;77.27;94430.63;5153198;27;20026;-73
2021/12/09 04:52:14;;;;;;;92.43;44.90;;;;;;;-2.95;76.94;94411.03;5154694;27;20034;-73
2021/12/09 04:54:41;;;;;;;95.22;46.05;;;;;;;-2.98;76.90;94436.53;5153087;27;20408;-73
2021/12/09 04:57:08;;;;;;;78.40;42.63;;;;;;;-2.95;76.61;94436.44;5153181;27;20035;-73
2021/12/09 04:59:33;;;;;;;76.93;38.00;;;;;;;-2.94;75.88;94422.84;5118683;27;20076;-73
2021/12/09 05:01:59;;;;;;;89.53;45.83;;;;;;;-2.81;74.86;94434.22;5153066;27;20103;-73
2021/12/09 05:04:24;;;;;;;81.88;40.63;;;;;;;-2.99;74.58;94405.22;5152879;27;20484;-73
2021/12/09 05:06:50;;;;;;;70.40;37.15;;;;;;;-2.85;74.96;94447.94;5152982;27;20440;-73
2021/12/09 05:09:18;;;;;;;74.45;37.60;;;;;;;-2.85;74.95;94436.94;5152825;27;20100;-73
2021/12/09 05:14:12;;;;;;;117.78;60.75;;;;;;;-2.85;75.27;94434.38;5135787;27;20476;-73
2021/12/09 05:16:38;;;;;;;113.95;57.60;;;;;;;-2.85;75.38;94430.13;5152608;27;20041;-73
2021/12/09 05:19:03;;;;;;;88.03;40.22;;;;;;;-2.98;75.17;94421.28;5153838;27;20067;-73
2021/12/09 05:21:34;;;;;;;79.82;38.95;;;;;;;-3.05;75.30;94440.19;5134819;27;20034;-72
2021/12/09 05:23:59;;;;;;;96.93;43.78;;;;;;;-3.26;75.65;94422.31;5136040;27;20492;-73
2021/12/09 05:26:29;;;;;;;97.35;42.30;;;;;;;-3.32;76.42;94429.28;5153780;27;20076;-73
2021/12/09 05:28:57;;;;;;;198.18;96.13;;;;;;;-3.20;76.18;94432.25;5119132;27;20044;-73
2021/12/09 05:34:07;;;;;;;106.25;51.78;;;;;;;-3.03;75.74;94448.59;5136884;27;20520;-73
2021/12/09 05:36:33;;;;;;;110.43;48.92;;;;;;;-3.00;75.54;94445.97;5119896;27;20031;-73
2021/12/09 05:38:58;;;;;;;100.53;47.60;;;;;;;-3.08;75.59;94437.78;5147876;27;20035;-73
2021/12/09 05:41:23;;;;;;;100.97;48.38;;;;;;;-3.27;75.73;94442.69;5147521;27;20024;-73
2021/12/09 05:43:49;;;;;;;88.75;43.95;;;;;;;-3.40;76.69;94450.72;5131526;27;20500;-73
2021/12/09 05:46:14;;;;;;;195.45;95.65;;;;;;;-3.19;76.43;94443.22;5132311;27;20416;-73
2021/12/09 05:48:41;;;;;;;127.80;62.22;;;;;;;-3.13;75.63;94421.84;5110792;28;20413;-73
2021/12/09 05:51:06;;;;;;;104.28;49.22;;;;;;;-3.78;76.23;94434.25;5114032;27;20477;-73
2021/12/09 05:53:32;;;;;;;117.85;52.58;;;;;;;-3.75;76.33;94431.59;5131205;27;20076;-73
2021/12/09 05:55:57;;;;;;;109.07;49.47;;;;;;;-3.80;77.24;94452.94;5114073;27;20031;-73
2021/12/09 05:58:23;;;;;;;123.82;56.92;;;;;;;-3.71;77.53;94448.38;5132376;27;20026;-73
2021/12/09 06:00:50;;;;;;;115.78;54.47;;;;;;;-3.53;76.79;94456.28;5114084;27;20050;-73
2021/12/09 06:03:16;;;;;;;110.10;52.55;;;;;;;-3.54;76.51;94436.81;5132281;27;20485;-73
2021/12/09 06:05:42;;;;;;;106.03;49.33;;;;;;;-3.58;76.29;94463.22;5130815;27;20050;-73
2021/12/09 06:08:07;;;;;;;119.22;54.80;;;;;;;-3.85;77.51;94464.06;5128435;27;20035;-73
2021/12/09 06:10:35;;;;;;;123.75;56.67;;;;;;;-3.64;77.44;94454.94;5123782;27;20027;-73
2021/12/09 06:13:00;;;;;;;115.53;54.53;;;;;;;-3.69;77.55;94439.00;5130713;27;20031;-73
2021/12/09 06:15:26;;;;;;;116.60;52.28;;;;;;;-3.49;77.26;94461.19;5113112;27;20041;-73
2021/12/09 06:17:52;;;;;;;108.85;53.15;;;;;;;-3.41;75.77;94445.69;5132556;27;20043;-73
2021/12/09 06:20:17;;;;;;;104.65;48.80;;;;;;;-3.28;75.39;94446.09;5130611;27;20087;-73
2021/12/09 06:22:42;;;;;;;83.00;42.75;;;;;;;-3.29;74.59;94452.88;5121844;27;20436;-73
2021/12/09 06:25:09;;;;;;;75.45;39.75;;;;;;;-3.27;73.71;94448.56;5112238;27;20435;-73
2021/12/09 06:27:34;;;;;;;100.22;44.53;;;;;;;-3.20;73.74;94457.66;5116374;27;20028;-74
2021/12/09 06:30:00;;;;;;;69.90;36.20;;;;;;;-3.17;72.71;94461.81;5120860;27;20029;-73
2021/12/09 06:32:27;;;;;;;71.85;36.30;;;;;;;-3.15;72.45;94460.88;5114240;27;20038;-73
2021/12/09 06:34:53;;;;;;;73.30;38.42;;;;;;;-3.06;72.08;94457.16;5130544;27;20023;-73
2021/12/09 06:37:19;;;;;;;110.28;51.65;;;;;;;-3.13;72.31;94453.19;5113994;28;20031;-73
2021/12/09 06:39:44;;;;;;;96.35;46.47;;;;;;;-3.44;73.45;94458.50;5131768;27;20034;-73
2021/12/09 06:42:10;;;;;;;137.77;64.63;;;;;;;-3.30;73.58;94451.22;5130642;28;20023;-73
2021/12/09 06:44:36;;;;;;;113.10;54.10;;;;;;;-3.21;72.54;94439.91;5130607;28;20080;-73
2021/12/09 06:47:01;;;;;;;112.13;53.08;;;;;;;-3.06;71.88;94448.72;5132036;27;20051;-74
2021/12/09 06:49:26;;;;;;;108.45;51.50;;;;;;;-3.01;72.12;94451.91;5112720;28;20404;-74
2021/12/09 06:51:52;;;;;;;119.85;55.10;;;;;;;-3.11;71.85;94453.13;5109695;28;20027;-73
2021/12/09 06:54:17;;;;;;;120.60;57.53;;;;;;;-3.07;72.21;94436.88;5092965;28;20504;-73
2021/12/09 06:56:43;;;;;;;124.85;59.60;;;;;;;-3.02;72.18;94455.34;5109990;28;20084;-74
2021/12/09 06:59:08;;;;;;;136.25;60.45;;;;;;;-3.04;71.80;94441.84;5109988;28;20039;-74
2021/12/09 07:01:35;;;;;;;134.32;61.10;;;;;;;-2.98;72.21;94459.41;5110952;28;20024;-74
2021/12/09 07:04:01;;;;;;;122.93;60.03;;;;;;;-2.93;72.50;94442.28;5110861;28;20076;-74
2021/12/09 07:06:27;;;;;;;116.07;57.13;;;;;;;-2.87;71.79;94442.09;5075284;28;20047;-74
2021/12/09 07:08:54;;;;;;;110.72;52.30;;;;;;;-2.92;72.12;94438.88;5092954;28;20046;-73
2021/12/09 07:11:20;;;;;;;107.57;48.20;;;;;;;-2.86;72.27;94440.38;5110842;28;20036;-74
2021/12/09 07:13:45;;;;;;;88.97;46.15;;;;;;;-2.75;72.30;94444.16;5109690;28;20046;-73
2021/12/09 07:16:11;;;;;;;87.00;43.63;;;;;;;-2.63;72.30;94455.59;5092866;28;20591;-73
2021/12/09 07:18:36;;;;;;;82.97;38.70;;;;;;;-2.41;71.96;94457.34;5092771;28;20035;-73
2021/12/09 07:21:02;;;;;;;79.90;38.55;;;;;;;-2.22;72.03;94448.09;5110874;28;20032;-73
2021/12/09 07:23:27;;;;;;;92.13;41.47;;;;;;;-2.40;72.54;94442.00;5109717;28;20028;-74
2021/12/09 07:25:53;;;;;;;99.28;41.33;;;;;;;-2.53;73.79;94443.38;5110813;28;20100;-73
2021/12/09 07:28:18;;;;;;;87.35;38.35;;;;;;;-2.89;76.34;94451.47;5111710;28;20016;-73
2021/12/09 07:30:44;;;;;;;103.22;39.53;;;;;;;-2.53;75.58;94451.00;5120018;27;20039;-74
2021/12/09 07:33:09;;;;;;;99.25;43.05;;;;;;;-3.23;77.04;94429.81;5096566;28;20027;-73
2021/12/09 07:35:35;;;;;;;107.90;38.65;;;;;;;-3.36;79.45;94446.38;5106873;28;20033;-73
2021/12/09 07:38:01;;;;;;;95.75;38.85;;;;;;;-3.03;78.36;94438.44;5114742;28;20027;-73
2021/12/09 07:40:26;;;;;;;90.07;39.00;;;;;;;-2.98;78.71;94434.84;5100475;28;20032;-74
2021/12/09 07:42:52;;;;;;;104.68;39.53;;;;;;;-3.16;79.48;94433.78;5131651;27;20409;-74
2021/12/09 07:45:17;;;;;;;100.90;43.08;;;;;;;-2.76;78.29;94427.25;5133721;27;20034;-74
2021/12/09 07:47:44;;;;;;;94.80;40.35;;;;;;;-2.67;78.05;94435.41;5116758;27;20027;-73
2021/12/09 07:50:13;;;;;;;113.70;43.97;;;;;;;-2.83;77.65;94430.09;5133624;27;20508;-74
2021/12/09 07:52:39;;;;;;;105.93;42.63;;;;;;;-2.70;77.38;94433.84;5133836;27;20462;-74
2021/12/09 07:55:05;;;;;;;122.60;50.88;;;;;;;-2.66;77.25;94426.91;5116467;27;20027;-73
2021/12/09 07:57:33;;;;;;;132.18;52.55;;;;;;;-2.74;77.89;94414.47;5133756;27;20432;-73
2021/12/09 08:00:01;;;;;;;123.55;52.90;;;;;;;-2.62;77.56;94413.19;5133520;27;20510;-74
2021/12/09 08:02:26;;;;;;;150.68;56.35;;;;;;;-2.17;76.22;94425.84;5134986;27;20043;-73
2021/12/09 08:04:52;;;;;;;119.35;51.22;;;;;;;-1.98;74.91;94423.38;5134592;27;20023;-74
2021/12/09 08:07:17;;;;;;;118.10;48.83;;;;;;;-2.03;74.82;94417.66;5134715;27;20050;-74
2021/12/09 08:09:43;;;;;;;107.38;47.75;;;;;;;-2.08;74.45;94417.03;5133276;27;20015;-74
2021/12/09 08:12:08;;;;;;;127.63;49.25;;;;;;;-2.09;74.71;94428.94;5099080;27;20050;-73
2021/12/09 08:14:35;;;;;;;123.25;48.67;;;;;;;-2.13;74.58;94424.00;5134480;27;20051;-74
2021/12/09 08:17:33;;;;;;;120.78;45.10;;;;;;;-2.11;75.17;94440.06;5134745;27;20034;-74
2021/12/09 08:19:59;;;;;;;108.85;41.95;;;;;;;-2.23;75.64;94441.34;5120606;27;20031;-74
2021/12/09 08:22:25;;;;;;;92.57;39.90;;;;;;;-2.10;75.53;94441.69;5134643;27;20047;-74
2021/12/09 08:24:51;;;;;;;83.03;32.45;;;;;;;-2.04;75.87;94437.19;5115903;27;20061;-73
2021/12/09 08:27:16;;;;;;;85.40;37.10;;;;;;;-2.07;75.85;94444.13;5134557;27;20042;-72
2021/12/09 08:29:42;;;;;;;89.72;40.80;;;;;;;-1.98;75.74;94445.47;5133032;27;20481;-73
2021/12/09 08:32:07;;;;;;;93.47;42.92;;;;;;;-1.93;75.57;94446.13;5132973;27;20019;-73
2021/12/09 08:34:33;;;;;;;76.78;33.33;;;;;;;-1.93;75.65;94431.66;5134039;27;20031;-73
2021/12/09 08:36:58;;;;;;;86.07;36.20;;;;;;;-1.82;75.27;94441.41;5132979;27;20041;-73
2021/12/09 08:39:24;;;;;;;75.55;33.90;;;;;;;-1.77;75.21;94436.97;5133879;27;20389;-73
2021/12/09 08:41:49;;;;;;;79.22;32.58;;;;;;;-1.79;75.98;94420.91;5098672;27;20031;-73
2021/12/09 08:44:14;;;;;;;110.80;38.15;;;;;;;-2.23;76.72;94420.16;5132655;27;20031;-73
2021/12/09 08:46:40;;;;;;;93.22;34.15;;;;;;;-2.42;77.22;94410.72;5133987;27;20023;-74
2021/12/09 08:49:08;;;;;;;79.93;33.40;;;;;;;-2.00;76.56;94422.63;5115429;27;20088;-74
2021/12/09 08:51:33;;;;;;;92.80;41.95;;;;;;;-1.96;76.40;94413.97;5132633;27;20477;-73
2021/12/09 08:53:59;;;;;;;103.35;44.85;;;;;;;-1.90;76.13;94412.91;5115003;27;20035;-75
2021/12/09 08:56:25;;;;;;;101.03;41.03;;;;;;;-1.81;76.06;94400.63;5114754;27;20091;-74
2021/12/09 08:58:50;;;;;;;113.05;43.00;;;;;;;-2.24;77.12;94398.97;5115317;27;20478;-74
2021/12/09 09:01:16;;;;;;;99.72;40.08;;;;;;;-1.98;76.39;94400.47;5132258;27;20034;-73
2021/12/09 09:03:41;;;;;;;120.65;46.58;;;;;;;-1.83;75.81;94392.22;5132316;27;20061;-74
2021/12/09 09:06:07;;;;;;;156.77;48.30;;;;;;;-2.14;76.65;94390.09;5097651;27;20100;-74
2021/12/09 09:08:32;;;;;;;123.40;45.75;;;;;;;-2.14;77.45;94395.19;5133415;27;20043;-73
2021/12/09 09:10:58;;;;;;;110.30;42.13;;;;;;;-2.22;77.41;94393.84;5132091;27;20076;-74
2021/12/09 09:13:23;;;;;;;144.65;50.85;;;;;;;-2.19;77.83;94375.91;5133223;27;20081;-73
2021/12/09 09:15:49;;;;;;;157.45;55.75;;;;;;;-1.90;77.45;94372.97;5131970;27;20031;-74
2021/12/09 09:18:15;;;;;;;140.43;50.53;;;;;;;-1.86;76.99;94371.97;5133163;27;20027;-73
2021/12/09 09:20:41;;;;;;;107.38;45.42;;;;;;;-1.82;76.81;94370.94;5114739;27;20023;-73
2021/12/09 09:23:10;;;;;;;101.53;40.45;;;;;;;-1.65;76.41;94372.78;5098063;27;20065;-73
2021/12/09 09:25:36;;;;;;;91.53;39.78;;;;;;;-1.61;76.17;94373.50;5131957;27;20038;-74
2021/12/09 09:28:02;;;;;;;96.35;36.47;;;;;;;-1.55;75.39;94355.41;5114623;27;20423;-74
2021/12/09 09:30:35;;;;;;;73.18;32.22;;;;;;;-1.56;75.43;94356.28;5114551;27;20022;-73
2021/12/09 09:33:00;;;;;;;78.82;34.72;;;;;;;-1.60;75.11;94336.94;5115171;27;20035;-74
2021/12/09 09:35:26;;;;;;;85.40;35.60;;;;;;;-1.54;75.67;94351.94;5131569;27;20103;-73
2021/12/09 09:37:51;;;;;;;83.00;38.58;;;;;;;-1.36;75.06;94356.25;5132781;27;20501;-74
2021/12/09 09:40:17;;;;;;;123.80;48.53;;;;;;;-1.28;74.73;94349.97;5114293;27;20492;-74
2021/12/09 09:45:11;;;;;;;99.40;41.15;;;;;;;-1.18;74.42;94351.22;5114605;27;20474;-74
2021/12/09 09:47:37;;;;;;;94.18;37.35;;;;;;;-1.17;74.05;94340.13;5133128;27;20054;-74
2021/12/09 09:50:04;;;;;;;91.63;38.28;;;;;;;-1.14;74.14;94356.13;5114217;27;20027;-74
2021/12/09 09:52:29;;;;;;;93.30;37.10;;;;;;;-0.98;73.70;94345.22;5097554;27;20484;-74
2021/12/09 09:54:56;;;;;;;99.85;40.25;;;;;;;-1.46;75.46;94339.69;5132442;27;20087;-74
2021/12/09 09:57:22;;;;;;;102.78;41.70;;;;;;;-1.48;76.06;94331.28;5131287;27;20489;-74
2021/12/09 09:59:47;;;;;;;90.88;39.30;;;;;;;-1.12;74.93;94320.34;5131137;27;20038;-73
2021/12/09 10:02:12;;;;;;;98.60;41.42;;;;;;;-0.71;73.72;94315.09;5131245;27;20606;-74
2021/12/09 10:07:04;;;;;;;88.43;39.92;;;;;;;-0.57;72.90;94289.75;5113840;27;20437;-73
2021/12/09 10:09:30;;;;;;;83.63;35.17;;;;;;;-0.64;72.58;94274.78;5132263;27;20062;-74
2021/12/09 10:11:55;;;;;;;79.43;35.38;;;;;;;-0.51;72.35;94304.75;5131148;27;20043;-73
2021/12/09 10:14:26;;;;;;;81.10;36.80;;;;;;;-0.34;71.70;94298.84;5113653;27;20035;-74
2021/12/09 10:17:11;;;;;;;87.70;38.67;;;;;;;-0.71;73.40;94289.56;5114593;27;20027;-73
2021/12/09 10:19:49;;;;;;;69.47;33.15;;;;;;;-0.98;73.99;94282.31;5130888;27;20031;-73
2021/12/09 10:22:20;;;;;;;88.75;39.95;;;;;;;-0.68;73.93;94281.78;5132405;27;20023;-74
2021/12/09 10:24:47;;;;;;;86.50;38.08;;;;;;;-0.39;72.20;94279.53;5114471;27;20114;-74
2021/12/09 10:27:17;;;;;;;83.15;38.70;;;;;;;-0.17;71.04;94277.59;5113945;27;20046;-74
2021/12/09 10:29:45;;;;;;;79.90;37.40;;;;;;;-0.18;71.88;94277.69;5131037;27;20062;-74
2021/12/09 10:32:17;;;;;;;98.32;41.53;;;;;;;0.02;72.07;94269.00;5114066;28;20084;-74
2021/12/09 10:34:46;;;;;;;91.97;42.92;;;;;;;0.08;70.90;94284.03;5130789;27;20512;-74
2021/12/09 10:37:21;;;;;;;93.50;41.85;;;;;;;0.13;71.55;94279.50;5113747;27;20035;-74
2021/12/09 10:39:50;;;;;;;77.43;35.85;;;;;;;0.39;70.01;94270.50;5130729;27;20066;-73
2021/12/09 10:42:17;;;;;;;78.85;36.25;;;;;;;0.46;70.29;94268.47;5130849;27;20033;-74
2021/12/09 10:44:50;;;;;;;74.35;34.97;;;;;;;0.14;71.50;94270.94;5130549;27;20034;-74
2021/12/09 10:52:54;;;;;;;82.55;39.33;;;;;;;0.55;70.61;94270.53;5132194;27;20035;-74
2021/12/09 10:55:29;;;;;;;84.00;39.10;;;;;;;0.69;69.56;94255.28;5130462;28;20027;-74
2021/12/09 10:58:06;;;;;;;92.95;39.65;;;;;;;0.38;69.20;94244.13;5114857;28;20023;-74
2021/12/09 11:00:58;;;;;;;88.78;40.38;;;;;;;0.49;70.75;94266.56;5130456;28;20042;-74
2021/12/09 11:03:42;;;;;;;92.18;38.88;;;;;;;0.67;69.60;94244.34;5130450;28;20039;-74
2021/12/09 11:06:13;;;;;;;85.95;38.45;;;;;;;0.91;68.45;94254.97;5130185;28;20126;-74
2021/12/09 11:08:45;;;;;;;85.88;37.33;;;;;;;1.05;68.44;94242.25;5130502;28;20035;-74
2021/12/09 11:11:13;;;;;;;101.07;47.65;;;;;;;1.12;68.76;94245.31;5131549;27;20023;-74
2021/12/09 11:13:41;;;;;;;108.57;49.08;;;;;;;1.22;69.10;94254.13;5130181;27;20031;-73
2021/12/09 11:16:07;;;;;;;94.63;44.97;;;;;;;1.30;68.83;94246.03;5131495;27;20102;-74
2021/12/09 11:18:41;;;;;;;102.72;44.85;;;;;;;1.49;68.21;94241.53;5114795;27;20126;-74
2021/12/09 11:21:10;;;;;;;101.88;47.83;;;;;;;1.54;67.82;94233.59;5117874;27;20027;-74
2021/12/09 11:23:44;;;;;;;149.55;62.70;;;;;;;1.58;68.44;94224.81;5135494;27;20033;-74
2021/12/09 11:26:39;;;;;;;129.23;55.65;;;;;;;1.79;67.52;94217.66;5134253;27;20058;-74
2021/12/09 11:29:11;;;;;;;105.68;49.30;;;;;;;1.88;68.36;94208.59;5135360;27;20110;-73